createdAt,value
2023-01-25T00:00:01.677Z,19.58
2023-01-25T00:01:02.302Z,19.51
2023-01-25T00:02:02.969Z,19.54
2023-01-25T00:03:03.619Z,19.52
2023-01-25T00:04:04.214Z,19.44
2023-01-25T00:05:04.897Z,19.47
2023-01-25T00:06:05.568Z,19.34
2023-01-25T00:07:06.233Z,19.36
2023-01-25T00:08:06.847Z,19.31
2023-01-25T00:09:07.452Z,19.26
2023-01-25T00:10:08.033Z,19.14
2023-01-25T00:11:08.627Z,19.26
2023-01-25T00:12:09.281Z,19.09
2023-01-25T00:13:09.876Z,19.16
2023-01-25T00:14:10.480Z,19.02
2023-01-25T00:15:11.137Z,19.04
2023-01-25T00:16:11.786Z,18.99
2023-01-25T00:17:12.394Z,18.88
2023-01-25T00:18:12.979Z,18.90
2023-01-25T00:19:13.575Z,18.88
2023-01-25T00:20:14.182Z,18.86
2023-01-25T00:21:14.804Z,18.81
2023-01-25T00:22:15.457Z,18.78
2023-01-25T00:23:16.056Z,18.75
2023-01-25T00:24:16.707Z,18.77
2023-01-25T00:25:17.319Z,18.65
2023-01-25T00:26:17.969Z,18.62
2023-01-25T00:27:18.716Z,18.62
2023-01-25T00:28:20.115Z,18.58
2023-01-25T00:29:20.721Z,18.58
2023-01-25T00:30:22.157Z,18.56
2023-01-25T00:31:23.769Z,18.41
2023-01-25T00:32:25.116Z,18.56
2023-01-25T00:33:25.800Z,18.49
2023-01-25T00:34:27.947Z,18.44
2023-01-25T00:35:28.789Z,18.43
2023-01-25T00:36:29.390Z,18.45
2023-01-25T00:37:29.986Z,18.40
2023-01-25T00:38:31.440Z,18.40
2023-01-25T00:39:32.081Z,18.37
2023-01-25T00:40:33.489Z,18.33
2023-01-25T00:41:34.158Z,18.28
2023-01-25T00:42:34.762Z,18.25
2023-01-25T00:43:35.350Z,18.28
2023-01-25T00:44:35.952Z,18.29
2023-01-25T00:45:36.567Z,18.20
2023-01-25T00:46:37.206Z,18.15
2023-01-25T00:47:37.806Z,18.16
2023-01-25T00:48:38.406Z,18.15
2023-01-25T00:49:39.002Z,18.11
2023-01-25T00:50:39.613Z,18.08
2023-01-25T00:51:40.204Z,18.07
2023-01-25T00:52:40.833Z,17.97
2023-01-25T00:53:41.468Z,18.10
2023-01-25T00:54:42.072Z,17.95
2023-01-25T00:55:42.667Z,18.15
2023-01-25T00:56:43.271Z,17.98
2023-01-25T00:57:43.866Z,18.04
2023-01-25T00:58:44.463Z,17.98
2023-01-25T00:59:45.064Z,17.95
2023-01-25T01:00:45.743Z,18.00
2023-01-25T01:01:46.331Z,17.97
2023-01-25T01:02:46.933Z,17.98
2023-01-25T01:03:47.534Z,17.98
2023-01-25T01:04:48.343Z,17.89
2023-01-25T01:05:48.991Z,17.86
2023-01-25T01:06:49.594Z,17.89
2023-01-25T01:07:50.262Z,17.82
2023-01-25T01:08:50.865Z,17.89
2023-01-25T01:09:51.470Z,17.90
2023-01-25T01:10:52.129Z,17.82
2023-01-25T01:11:52.893Z,17.89
2023-01-25T01:12:53.483Z,17.79
2023-01-25T01:13:54.078Z,17.74
2023-01-25T01:14:54.681Z,17.82
2023-01-25T01:15:55.276Z,17.80
2023-01-25T01:16:57.242Z,17.79
2023-01-25T01:17:57.466Z,17.70
2023-01-25T01:18:58.070Z,17.71
2023-01-25T01:19:58.663Z,17.78
2023-01-25T01:20:59.281Z,17.74
2023-01-25T01:21:59.869Z,17.70
2023-01-25T01:23:00.479Z,17.76
2023-01-25T01:24:01.141Z,17.71
2023-01-25T01:25:01.791Z,17.70
2023-01-25T01:26:02.364Z,17.70
2023-01-25T01:27:02.963Z,17.67
2023-01-25T01:28:03.792Z,17.67
2023-01-25T01:29:04.457Z,17.65
2023-01-25T01:30:05.117Z,17.65
2023-01-25T01:31:05.769Z,17.65
2023-01-25T01:32:06.476Z,17.63
2023-01-25T01:33:07.146Z,17.65
2023-01-25T01:34:07.805Z,17.65
2023-01-25T01:35:08.653Z,17.57
2023-01-25T01:36:09.441Z,17.59
2023-01-25T01:37:10.044Z,17.63
2023-01-25T01:38:10.632Z,17.56
2023-01-25T01:39:12.085Z,17.54
2023-01-25T01:40:12.681Z,17.51
2023-01-25T01:41:13.286Z,17.52
2023-01-25T01:42:13.877Z,17.63
2023-01-25T01:43:14.479Z,17.60
2023-01-25T01:44:15.275Z,17.54
2023-01-25T01:45:15.876Z,17.51
2023-01-25T01:46:16.571Z,17.46
2023-01-25T01:47:17.213Z,17.52
2023-01-25T01:48:17.878Z,17.48
2023-01-25T01:49:18.604Z,17.45
2023-01-25T01:50:19.255Z,17.48
2023-01-25T01:51:19.930Z,17.41
2023-01-25T01:52:20.527Z,17.45
2023-01-25T01:53:21.131Z,17.45
2023-01-25T01:54:21.727Z,17.45
2023-01-25T01:55:22.330Z,17.48
2023-01-25T01:56:22.948Z,17.41
2023-01-25T01:57:23.533Z,17.41
2023-01-25T01:58:24.176Z,17.34
2023-01-25T01:59:24.777Z,17.44
2023-01-25T02:00:25.371Z,17.39
2023-01-25T02:01:26.069Z,17.46
2023-01-25T02:02:26.880Z,17.41
2023-01-25T02:03:27.597Z,17.38
2023-01-25T02:04:28.188Z,17.45
2023-01-25T02:05:28.791Z,17.30
2023-01-25T02:06:29.386Z,17.31
2023-01-25T02:07:29.998Z,17.38
2023-01-25T02:08:30.584Z,17.33
2023-01-25T02:09:31.186Z,17.29
2023-01-25T02:10:31.799Z,17.27
2023-01-25T02:11:32.402Z,17.39
2023-01-25T02:12:33.067Z,17.30
2023-01-25T02:13:33.670Z,17.36
2023-01-25T02:14:34.268Z,17.33
2023-01-25T02:15:34.988Z,17.31
2023-01-25T02:16:35.572Z,17.27
2023-01-25T02:17:36.177Z,17.26
2023-01-25T02:18:36.782Z,17.29
2023-01-25T02:19:37.376Z,17.19
2023-01-25T02:20:37.974Z,17.29
2023-01-25T02:21:38.578Z,17.27
2023-01-25T02:22:39.235Z,17.24
2023-01-25T02:23:39.838Z,17.23
2023-01-25T02:24:40.434Z,17.24
2023-01-25T02:25:41.036Z,17.22
2023-01-25T02:26:41.635Z,17.14
2023-01-25T02:27:42.228Z,17.09
2023-01-25T02:28:42.826Z,17.16
2023-01-25T02:29:43.424Z,17.16
2023-01-25T02:30:44.166Z,17.16
2023-01-25T02:31:44.819Z,17.08
2023-01-25T02:32:45.462Z,17.16
2023-01-25T02:33:46.120Z,17.15
2023-01-25T02:34:46.710Z,17.11
2023-01-25T02:35:47.310Z,17.11
2023-01-25T02:36:48.055Z,17.06
2023-01-25T02:37:48.654Z,17.06
2023-01-25T02:38:49.247Z,17.05
2023-01-25T02:39:49.848Z,17.08
2023-01-25T02:40:50.440Z,17.09
2023-01-25T02:41:51.056Z,17.08
2023-01-25T02:42:51.650Z,17.02
2023-01-25T02:43:52.251Z,17.09
2023-01-25T02:44:53.695Z,17.05
2023-01-25T02:45:54.345Z,17.06
2023-01-25T02:46:54.998Z,17.08
2023-01-25T02:47:55.594Z,17.02
2023-01-25T02:48:56.228Z,17.01
2023-01-25T02:49:56.817Z,17.02
2023-01-25T02:50:57.428Z,17.06
2023-01-25T02:51:58.068Z,17.04
2023-01-25T02:52:58.659Z,17.01
2023-01-25T02:53:59.257Z,17.05
2023-01-25T02:54:59.853Z,16.99
2023-01-25T02:56:00.454Z,16.97
2023-01-25T02:57:01.100Z,17.02
2023-01-25T02:58:01.805Z,16.93
2023-01-25T02:59:02.401Z,16.94
2023-01-25T03:00:03.002Z,16.99
2023-01-25T03:01:03.599Z,16.97
2023-01-25T03:02:04.206Z,16.91
2023-01-25T03:03:04.801Z,16.97
2023-01-25T03:04:05.413Z,16.99
2023-01-25T03:05:06.376Z,16.94
2023-01-25T03:06:07.150Z,16.93
2023-01-25T03:07:07.807Z,16.91
2023-01-25T03:08:08.408Z,16.91
2023-01-25T03:09:09.008Z,16.90
2023-01-25T03:10:09.603Z,16.91
2023-01-25T03:11:10.197Z,16.89
2023-01-25T03:12:11.645Z,16.97
2023-01-25T03:13:12.236Z,16.93
2023-01-25T03:14:12.837Z,16.94
2023-01-25T03:15:13.442Z,16.93
2023-01-25T03:16:14.082Z,16.99
2023-01-25T03:17:14.682Z,16.97
2023-01-25T03:18:15.289Z,17.01
2023-01-25T03:19:15.870Z,16.90
2023-01-25T03:20:16.472Z,16.99
2023-01-25T03:21:17.085Z,16.91
2023-01-25T03:22:17.728Z,17.04
2023-01-25T03:23:18.322Z,16.97
2023-01-25T03:24:18.978Z,17.02
2023-01-25T03:25:19.579Z,16.90
2023-01-25T03:26:20.193Z,17.01
2023-01-25T03:27:20.783Z,17.01
2023-01-25T03:28:21.377Z,16.94
2023-01-25T03:29:21.974Z,16.89
2023-01-25T03:30:22.574Z,16.93
2023-01-25T03:31:23.303Z,16.90
2023-01-25T03:32:23.960Z,16.90
2023-01-25T03:33:24.615Z,16.90
2023-01-25T03:34:25.218Z,16.93
2023-01-25T03:35:25.811Z,16.91
2023-01-25T03:36:26.606Z,16.87
2023-01-25T03:37:27.220Z,16.84
2023-01-25T03:38:27.813Z,16.90
2023-01-25T03:39:28.415Z,16.90
2023-01-25T03:40:29.091Z,16.90
2023-01-25T03:41:30.548Z,16.84
2023-01-25T03:42:31.145Z,16.90
2023-01-25T03:43:31.811Z,16.87
2023-01-25T03:44:32.397Z,16.89
2023-01-25T03:45:32.996Z,16.86
2023-01-25T03:46:33.643Z,16.87
2023-01-25T03:47:34.256Z,16.84
2023-01-25T03:48:34.956Z,16.84
2023-01-25T03:49:35.553Z,16.90
2023-01-25T03:50:36.154Z,16.84
2023-01-25T03:51:36.799Z,16.81
2023-01-25T03:52:37.384Z,16.83
2023-01-25T03:53:38.037Z,16.87
2023-01-25T03:54:38.631Z,16.79
2023-01-25T03:55:39.229Z,16.79
2023-01-25T03:56:40.029Z,16.83
2023-01-25T03:57:40.623Z,16.84
2023-01-25T03:58:41.219Z,16.83
2023-01-25T03:59:41.823Z,16.81
2023-01-25T04:00:42.481Z,16.86
2023-01-25T04:01:43.114Z,16.83
2023-01-25T04:02:43.889Z,16.76
2023-01-25T04:03:44.464Z,16.76
2023-01-25T04:04:45.072Z,16.79
2023-01-25T04:05:45.659Z,16.74
2023-01-25T04:06:46.250Z,16.81
2023-01-25T04:07:46.858Z,16.79
2023-01-25T04:08:47.447Z,16.72
2023-01-25T04:09:48.046Z,16.76
2023-01-25T04:10:48.640Z,16.79
2023-01-25T04:11:49.244Z,16.79
2023-01-25T04:12:49.839Z,16.74
2023-01-25T04:13:50.482Z,16.74
2023-01-25T04:14:51.078Z,16.66
2023-01-25T04:15:51.687Z,16.74
2023-01-25T04:16:52.421Z,16.71
2023-01-25T04:17:53.024Z,16.69
2023-01-25T04:18:53.621Z,16.69
2023-01-25T04:19:54.227Z,16.75
2023-01-25T04:20:54.819Z,16.72
2023-01-25T04:21:55.423Z,16.72
2023-01-25T04:22:56.039Z,16.69
2023-01-25T04:23:56.682Z,16.69
2023-01-25T04:24:57.293Z,16.72
2023-01-25T04:25:57.901Z,16.71
2023-01-25T04:26:58.481Z,16.72
2023-01-25T04:27:59.083Z,16.71
2023-01-25T04:28:59.677Z,16.66
2023-01-25T04:30:00.285Z,16.76
2023-01-25T04:31:00.885Z,16.61
2023-01-25T04:32:01.676Z,16.72
2023-01-25T04:33:02.348Z,16.66
2023-01-25T04:34:02.952Z,16.64
2023-01-25T04:35:03.544Z,16.60
2023-01-25T04:36:04.159Z,16.60
2023-01-25T04:37:04.743Z,16.61
2023-01-25T04:38:05.343Z,16.69
2023-01-25T04:39:05.941Z,16.61
2023-01-25T04:40:06.693Z,16.64
2023-01-25T04:41:07.370Z,16.68
2023-01-25T04:42:07.972Z,16.65
2023-01-25T04:43:08.565Z,16.58
2023-01-25T04:44:09.166Z,16.64
2023-01-25T04:45:10.172Z,16.60
2023-01-25T04:46:11.150Z,16.66
2023-01-25T04:47:11.784Z,16.61
2023-01-25T04:48:12.411Z,16.65
2023-01-25T04:49:12.997Z,16.65
2023-01-25T04:50:13.621Z,16.64
2023-01-25T04:51:14.244Z,16.61
2023-01-25T04:52:14.882Z,16.65
2023-01-25T04:53:15.518Z,16.69
2023-01-25T04:54:16.127Z,16.72
2023-01-25T04:55:16.720Z,16.58
2023-01-25T04:56:17.398Z,16.64
2023-01-25T04:57:18.012Z,16.68
2023-01-25T04:58:18.618Z,16.61
2023-01-25T04:59:19.205Z,16.60
2023-01-25T05:00:19.815Z,16.66
2023-01-25T05:01:20.507Z,16.57
2023-01-25T05:02:21.168Z,16.60
2023-01-25T05:03:21.760Z,16.57
2023-01-25T05:04:22.512Z,16.61
2023-01-25T05:05:23.224Z,16.57
2023-01-25T05:06:23.827Z,16.64
2023-01-25T05:07:24.419Z,16.60
2023-01-25T05:08:25.019Z,16.68
2023-01-25T05:09:25.613Z,16.64
2023-01-25T05:10:26.213Z,16.57
2023-01-25T05:11:26.821Z,16.60
2023-01-25T05:12:27.423Z,16.54
2023-01-25T05:13:28.017Z,16.60
2023-01-25T05:14:28.617Z,16.56
2023-01-25T05:15:29.280Z,16.60
2023-01-25T05:16:29.917Z,16.60
2023-01-25T05:17:30.524Z,16.57
2023-01-25T05:18:47.101Z,16.56
2023-01-25T05:19:31.791Z,16.60
2023-01-25T05:20:32.388Z,16.50
2023-01-25T05:21:32.981Z,16.54
2023-01-25T05:22:33.592Z,16.60
2023-01-25T05:23:34.173Z,16.56
2023-01-25T05:24:34.779Z,16.46
2023-01-25T05:25:35.368Z,16.58
2023-01-25T05:26:35.969Z,16.47
2023-01-25T05:27:36.559Z,16.60
2023-01-25T05:28:37.172Z,16.58
2023-01-25T05:29:37.752Z,16.58
2023-01-25T05:30:38.397Z,16.56
2023-01-25T05:31:39.046Z,16.53
2023-01-25T05:32:39.657Z,16.50
2023-01-25T05:33:40.256Z,16.53
2023-01-25T05:34:40.856Z,16.47
2023-01-25T05:35:41.441Z,16.51
2023-01-25T05:36:42.093Z,16.51
2023-01-25T05:37:42.758Z,16.46
2023-01-25T05:38:43.362Z,16.49
2023-01-25T05:39:43.954Z,16.42
2023-01-25T05:40:44.568Z,16.51
2023-01-25T05:41:45.214Z,16.47
2023-01-25T05:42:45.815Z,16.47
2023-01-25T05:43:46.411Z,16.42
2023-01-25T05:44:47.883Z,16.49
2023-01-25T05:45:48.620Z,16.47
2023-01-25T05:46:49.238Z,16.47
2023-01-25T05:47:49.836Z,16.43
2023-01-25T05:48:50.436Z,16.43
2023-01-25T05:49:51.027Z,16.46
2023-01-25T05:50:51.688Z,16.47
2023-01-25T05:51:52.275Z,16.42
2023-01-25T05:52:52.876Z,16.47
2023-01-25T05:53:53.472Z,16.46
2023-01-25T05:54:54.120Z,16.43
2023-01-25T05:55:54.721Z,16.41
2023-01-25T05:56:55.323Z,16.43
2023-01-25T05:57:55.933Z,16.38
2023-01-25T05:58:56.572Z,16.46
2023-01-25T05:59:57.183Z,16.38
2023-01-25T06:00:57.761Z,16.43
2023-01-25T06:01:58.355Z,16.51
2023-01-25T06:02:59.030Z,16.43
2023-01-25T06:03:59.690Z,16.49
2023-01-25T06:05:00.454Z,16.42
2023-01-25T06:06:01.012Z,16.42
2023-01-25T06:07:01.612Z,16.49
2023-01-25T06:08:02.205Z,16.41
2023-01-25T06:09:02.805Z,16.49
2023-01-25T06:10:03.400Z,16.41
2023-01-25T06:11:04.000Z,16.32
2023-01-25T06:12:04.593Z,16.42
2023-01-25T06:13:05.245Z,16.38
2023-01-25T06:14:05.845Z,16.41
2023-01-25T06:15:07.013Z,16.38
2023-01-25T06:16:07.854Z,16.35
2023-01-25T06:17:08.443Z,16.41
2023-01-25T06:18:09.085Z,16.33
2023-01-25T06:19:09.683Z,16.42
2023-01-25T06:20:10.277Z,16.36
2023-01-25T06:21:10.878Z,16.39
2023-01-25T06:22:11.481Z,16.38
2023-01-25T06:23:12.077Z,16.41
2023-01-25T06:24:12.837Z,16.42
2023-01-25T06:25:13.454Z,16.35
2023-01-25T06:26:14.039Z,16.38
2023-01-25T06:27:14.640Z,16.36
2023-01-25T06:28:15.232Z,16.39
2023-01-25T06:29:15.832Z,16.36
2023-01-25T06:31:18.222Z,16.33
2023-01-25T06:32:18.893Z,16.31
2023-01-25T06:33:19.489Z,16.39
2023-01-25T06:34:20.142Z,16.33
2023-01-25T06:35:20.744Z,16.46
2023-01-25T06:36:21.485Z,16.41
2023-01-25T06:37:22.120Z,16.28
2023-01-25T06:38:22.715Z,16.38
2023-01-25T06:39:23.308Z,16.33
2023-01-25T06:40:23.911Z,16.33
2023-01-25T06:41:24.502Z,16.32
2023-01-25T06:42:25.104Z,16.32
2023-01-25T06:43:26.549Z,16.39
2023-01-25T06:44:27.151Z,16.35
2023-01-25T06:45:27.778Z,16.33
2023-01-25T06:46:28.428Z,16.42
2023-01-25T06:47:29.090Z,16.36
2023-01-25T06:48:29.738Z,16.35
2023-01-25T06:49:30.358Z,16.33
2023-01-25T06:50:30.992Z,16.33
2023-01-25T06:51:31.587Z,16.39
2023-01-25T06:52:32.187Z,16.36
2023-01-25T06:53:32.779Z,16.28
2023-01-25T06:54:33.432Z,16.38
2023-01-25T06:55:34.031Z,16.33
2023-01-25T06:56:34.645Z,16.36
2023-01-25T06:57:35.293Z,16.33
2023-01-25T06:58:35.901Z,16.36
2023-01-25T06:59:36.498Z,16.32
2023-01-25T07:00:37.099Z,16.36
2023-01-25T07:01:37.755Z,16.36
2023-01-25T07:02:38.422Z,16.29
2023-01-25T07:03:39.016Z,16.35
2023-01-25T07:04:39.674Z,16.28
2023-01-25T07:05:40.267Z,16.29
2023-01-25T07:06:40.868Z,16.29
2023-01-25T07:07:41.460Z,16.28
2023-01-25T07:08:42.062Z,16.29
2023-01-25T07:09:42.679Z,16.28
2023-01-25T07:10:43.271Z,16.28
2023-01-25T07:11:43.864Z,16.32
2023-01-25T07:12:44.457Z,16.24
2023-01-25T07:13:45.050Z,16.24
2023-01-25T07:14:45.652Z,16.31
2023-01-25T07:15:46.254Z,16.24
2023-01-25T07:16:46.869Z,16.24
2023-01-25T07:17:47.525Z,16.28
2023-01-25T07:18:48.129Z,16.32
2023-01-25T07:19:48.730Z,16.31
2023-01-25T07:20:49.332Z,16.24
2023-01-25T07:21:49.997Z,16.17
2023-01-25T07:22:50.600Z,16.16
2023-01-25T07:23:51.268Z,16.17
2023-01-25T07:24:51.905Z,16.15
2023-01-25T07:25:52.498Z,16.16
2023-01-25T07:26:53.097Z,16.29
2023-01-25T07:27:53.690Z,16.20
2023-01-25T07:28:54.319Z,16.23
2023-01-25T07:29:54.985Z,16.21
2023-01-25T07:30:55.610Z,16.16
2023-01-25T07:31:56.352Z,16.20
2023-01-25T07:32:57.061Z,16.28
2023-01-25T07:33:58.459Z,16.16
2023-01-25T07:34:59.053Z,16.24
2023-01-25T07:35:59.647Z,16.21
2023-01-25T07:37:00.248Z,16.23
2023-01-25T07:38:00.859Z,16.20
2023-01-25T07:39:01.457Z,16.17
2023-01-25T07:40:02.043Z,16.26
2023-01-25T07:41:02.794Z,16.28
2023-01-25T07:42:04.237Z,16.16
2023-01-25T07:43:04.998Z,16.24
2023-01-25T07:44:05.746Z,16.16
2023-01-25T07:45:06.390Z,16.28
2023-01-25T07:46:07.009Z,16.21
2023-01-25T07:47:07.760Z,16.24
2023-01-25T07:48:08.364Z,16.08
2023-01-25T07:49:08.967Z,16.17
2023-01-25T07:50:09.550Z,16.26
2023-01-25T07:51:10.153Z,16.13
2023-01-25T07:52:10.747Z,16.17
2023-01-25T07:53:11.347Z,16.13
2023-01-25T07:54:11.941Z,16.13
2023-01-25T07:55:12.649Z,16.23
2023-01-25T07:56:13.234Z,16.23
2023-01-25T07:57:13.839Z,16.26
2023-01-25T07:58:14.434Z,16.20
2023-01-25T07:59:15.025Z,16.26
2023-01-25T08:00:15.626Z,16.16
2023-01-25T08:01:16.218Z,16.26
2023-01-25T08:02:16.820Z,16.15
2023-01-25T08:03:17.412Z,16.21
2023-01-25T08:04:18.013Z,16.16
2023-01-25T08:05:18.609Z,16.20
2023-01-25T08:06:19.209Z,16.05
2023-01-25T08:07:19.804Z,16.20
2023-01-25T08:08:20.456Z,16.17
2023-01-25T08:09:21.050Z,16.17
2023-01-25T08:10:21.653Z,16.23
2023-01-25T08:11:22.254Z,16.21
2023-01-25T08:12:22.847Z,16.15
2023-01-25T08:13:23.515Z,16.15
2023-01-25T08:14:24.120Z,16.13
2023-01-25T08:15:24.707Z,16.17
2023-01-25T08:16:25.367Z,16.15
2023-01-25T08:17:26.018Z,16.13
2023-01-25T08:18:26.619Z,16.17
2023-01-25T08:19:28.016Z,16.10
2023-01-25T08:20:28.625Z,16.12
2023-01-25T08:21:29.234Z,16.10
2023-01-25T08:22:29.813Z,16.12
2023-01-25T08:23:30.410Z,16.16
2023-01-25T08:24:31.135Z,16.20
2023-01-25T08:25:31.725Z,16.13
2023-01-25T08:26:32.329Z,16.09
2023-01-25T08:27:32.920Z,16.17
2023-01-25T08:28:33.522Z,16.01
2023-01-25T08:29:34.118Z,16.05
2023-01-25T08:30:34.857Z,16.04
2023-01-25T08:31:35.648Z,16.13
2023-01-25T08:32:37.213Z,16.12
2023-01-25T08:33:37.750Z,16.16
2023-01-25T08:34:38.353Z,16.09
2023-01-25T08:35:38.951Z,16.01
2023-01-25T08:36:39.549Z,16.02
2023-01-25T08:37:40.209Z,16.02
2023-01-25T08:38:40.831Z,16.15
2023-01-25T08:39:41.482Z,16.16
2023-01-25T08:40:42.135Z,16.15
2023-01-25T08:41:42.727Z,16.16
2023-01-25T08:42:43.334Z,16.15
2023-01-25T08:43:43.973Z,16.12
2023-01-25T08:44:44.585Z,16.16
2023-01-25T08:45:45.178Z,16.13
2023-01-25T08:46:45.817Z,16.17
2023-01-25T08:47:46.399Z,16.13
2023-01-25T08:48:47.053Z,16.05
2023-01-25T08:49:47.644Z,16.16
2023-01-25T08:50:48.248Z,16.16
2023-01-25T08:51:49.043Z,16.04
2023-01-25T08:52:50.487Z,16.12
2023-01-25T08:53:51.079Z,16.16
2023-01-25T08:54:51.681Z,16.17
2023-01-25T08:55:52.293Z,16.16
2023-01-25T08:56:52.941Z,16.12
2023-01-25T08:57:55.104Z,16.13
2023-01-25T08:58:55.122Z,16.09
2023-01-25T08:59:55.861Z,16.12
2023-01-25T09:00:56.463Z,16.02
2023-01-25T09:01:57.057Z,16.05
2023-01-25T09:02:57.674Z,16.01
2023-01-25T09:03:58.393Z,16.05
2023-01-25T09:04:59.009Z,16.08
2023-01-25T09:05:59.674Z,16.09
2023-01-25T09:07:00.275Z,16.05
2023-01-25T09:08:00.901Z,16.04
2023-01-25T09:09:01.484Z,16.05
2023-01-25T09:10:02.088Z,16.13
2023-01-25T09:11:02.682Z,16.15
2023-01-25T09:12:03.323Z,16.13
2023-01-25T09:13:03.925Z,16.05
2023-01-25T09:14:04.588Z,16.05
2023-01-25T09:15:05.276Z,16.01
2023-01-25T09:16:05.869Z,16.08
2023-01-25T09:17:06.472Z,16.02
2023-01-25T09:18:07.069Z,16.08
2023-01-25T09:19:07.697Z,16.12
2023-01-25T09:20:08.585Z,16.05
2023-01-25T09:21:09.348Z,16.10
2023-01-25T09:22:09.940Z,16.04
2023-01-25T09:23:10.543Z,16.05
2023-01-25T09:24:11.334Z,16.05
2023-01-25T09:25:11.942Z,16.09
2023-01-25T09:26:12.531Z,16.04
2023-01-25T09:27:13.134Z,16.05
2023-01-25T09:28:13.726Z,16.01
2023-01-25T09:29:14.331Z,16.08
2023-01-25T09:30:18.839Z,16.04
2023-01-25T09:31:22.414Z,16.01
2023-01-25T09:32:18.224Z,16.04
2023-01-25T09:33:18.833Z,16.05
2023-01-25T09:34:19.429Z,16.02
2023-01-25T09:35:20.082Z,16.05
2023-01-25T09:36:21.527Z,16.05
2023-01-25T09:37:22.131Z,16.05
2023-01-25T09:38:22.726Z,16.01
2023-01-25T09:39:23.335Z,16.04
2023-01-25T09:40:23.922Z,16.05
2023-01-25T09:41:24.530Z,16.13
2023-01-25T09:42:25.131Z,16.09
2023-01-25T09:43:25.791Z,16.12
2023-01-25T09:44:26.382Z,16.12
2023-01-25T09:45:27.838Z,16.05
2023-01-25T09:46:28.460Z,16.10
2023-01-25T09:47:29.060Z,16.10
2023-01-25T09:48:29.656Z,16.05
2023-01-25T09:49:30.260Z,16.02
2023-01-25T09:50:30.862Z,16.02
2023-01-25T09:51:31.527Z,16.08
2023-01-25T09:52:32.347Z,16.05
2023-01-25T09:53:32.902Z,16.02
2023-01-25T09:54:39.288Z,16.13
2023-01-25T09:55:35.092Z,16.04
2023-01-25T09:56:35.836Z,16.01
2023-01-25T09:57:37.431Z,16.08
2023-01-25T09:58:38.028Z,16.02
2023-01-25T09:59:38.813Z,16.09
2023-01-25T10:00:39.455Z,16.01
2023-01-25T10:01:40.059Z,16.13
2023-01-25T10:02:40.752Z,16.10
2023-01-25T10:03:41.440Z,16.09
2023-01-25T10:04:42.066Z,16.04
2023-01-25T10:05:42.644Z,16.15
2023-01-25T10:06:48.741Z,16.05
2023-01-25T10:07:44.835Z,16.04
2023-01-25T10:08:46.333Z,16.02
2023-01-25T10:09:46.930Z,16.04
2023-01-25T10:10:47.598Z,16.08
2023-01-25T10:11:48.206Z,16.10
2023-01-25T10:12:48.803Z,16.08
2023-01-25T10:13:49.414Z,16.05
2023-01-25T10:14:50.003Z,16.09
2023-01-25T10:15:50.642Z,16.04
2023-01-25T10:16:51.259Z,16.05
2023-01-25T10:17:51.871Z,16.05
2023-01-25T10:18:52.463Z,16.04
2023-01-25T10:19:53.064Z,16.09
2023-01-25T10:20:53.658Z,16.10
2023-01-25T10:21:54.259Z,16.04
2023-01-25T10:22:54.851Z,16.05
2023-01-25T10:23:55.536Z,16.16
2023-01-25T10:24:56.174Z,16.09
2023-01-25T10:25:56.779Z,16.05
2023-01-25T10:26:57.377Z,16.02
2023-01-25T10:27:57.983Z,16.10
2023-01-25T10:28:58.567Z,16.09
2023-01-25T10:29:59.168Z,16.08
2023-01-25T10:30:59.825Z,16.10
2023-01-25T10:32:00.490Z,16.10
2023-01-25T10:33:01.117Z,16.09
2023-01-25T10:34:01.782Z,16.08
2023-01-25T10:35:03.223Z,16.02
2023-01-25T10:36:03.824Z,16.08
2023-01-25T10:37:04.419Z,16.01
2023-01-25T10:38:05.020Z,16.08
2023-01-25T10:39:05.627Z,16.09
2023-01-25T10:40:06.285Z,16.02
2023-01-25T10:41:06.876Z,16.05
2023-01-25T10:42:07.484Z,16.13
2023-01-25T10:43:08.075Z,16.10
2023-01-25T10:44:08.743Z,16.12
2023-01-25T10:45:09.696Z,16.05
2023-01-25T10:46:10.558Z,16.04
2023-01-25T10:47:11.159Z,16.08
2023-01-25T10:48:11.759Z,16.05
2023-01-25T10:49:12.354Z,16.08
2023-01-25T10:50:12.967Z,16.04
2023-01-25T10:51:13.548Z,16.04
2023-01-25T10:52:14.173Z,16.12
2023-01-25T10:53:14.771Z,16.12
2023-01-25T10:54:15.363Z,16.12
2023-01-25T10:55:16.005Z,16.08
2023-01-25T10:56:17.408Z,16.16
2023-01-25T10:57:18.002Z,16.13
2023-01-25T10:58:18.602Z,16.12
2023-01-25T10:59:19.207Z,16.15
2023-01-25T11:00:19.798Z,16.16
2023-01-25T11:01:20.620Z,16.20
2023-01-25T11:02:21.221Z,16.09
2023-01-25T11:03:22.043Z,16.20
2023-01-25T11:04:22.685Z,16.20
2023-01-25T11:05:23.275Z,16.09
2023-01-25T11:06:23.881Z,16.17
2023-01-25T11:07:24.482Z,16.26
2023-01-25T11:08:25.158Z,16.23
2023-01-25T11:09:25.809Z,16.15
2023-01-25T11:10:26.408Z,16.16
2023-01-25T11:11:27.004Z,16.16
2023-01-25T11:12:27.653Z,16.21
2023-01-25T11:13:28.248Z,16.21
2023-01-25T11:14:28.862Z,16.23
2023-01-25T11:15:29.449Z,16.23
2023-01-25T11:16:30.067Z,16.23
2023-01-25T11:17:30.676Z,16.20
2023-01-25T11:18:31.259Z,16.23
2023-01-25T11:19:31.864Z,16.16
2023-01-25T11:20:32.453Z,16.26
2023-01-25T11:21:33.052Z,16.21
2023-01-25T11:22:33.654Z,16.26
2023-01-25T11:23:35.102Z,16.24
2023-01-25T11:24:35.724Z,16.17
2023-01-25T11:25:36.323Z,16.17
2023-01-25T11:26:36.986Z,16.21
2023-01-25T11:27:37.584Z,16.23
2023-01-25T11:28:38.324Z,16.17
2023-01-25T11:29:38.917Z,16.20
2023-01-25T11:30:39.572Z,16.10
2023-01-25T11:31:40.214Z,16.23
2023-01-25T11:32:40.830Z,16.17
2023-01-25T11:33:41.463Z,16.10
2023-01-25T11:34:42.076Z,16.23
2023-01-25T11:35:42.733Z,16.12
2023-01-25T11:36:43.346Z,16.15
2023-01-25T11:37:43.943Z,16.26
2023-01-25T11:38:44.604Z,16.16
2023-01-25T11:39:45.184Z,16.15
2023-01-25T11:40:45.782Z,16.17
2023-01-25T11:41:46.377Z,16.17
2023-01-25T11:42:46.977Z,16.10
2023-01-25T11:43:47.570Z,16.16
2023-01-25T11:44:48.171Z,16.16
2023-01-25T11:45:48.804Z,16.13
2023-01-25T11:46:49.431Z,16.12
2023-01-25T11:47:50.095Z,16.20
2023-01-25T11:48:50.703Z,16.15
2023-01-25T11:49:51.288Z,16.20
2023-01-25T11:50:51.901Z,16.24
2023-01-25T11:51:54.104Z,16.12
2023-01-25T11:52:54.083Z,16.15
2023-01-25T11:53:54.883Z,16.17
2023-01-25T11:54:55.433Z,16.08
2023-01-25T11:55:56.026Z,16.16
2023-01-25T11:56:56.681Z,16.08
2023-01-25T11:57:57.349Z,16.12
2023-01-25T11:58:58.144Z,16.16
2023-01-25T11:59:58.756Z,16.13
2023-01-25T12:00:59.391Z,16.16
2023-01-25T12:01:59.973Z,16.24
2023-01-25T12:03:00.670Z,16.15
2023-01-25T12:04:02.177Z,16.17
2023-01-25T12:05:09.677Z,16.23
2023-01-25T12:06:04.425Z,16.26
2023-01-25T12:07:05.022Z,16.13
2023-01-25T12:08:05.616Z,16.23
2023-01-25T12:09:06.441Z,16.26
2023-01-25T12:10:07.183Z,16.17
2023-01-25T12:11:07.876Z,16.24
2023-01-25T12:12:08.474Z,16.15
2023-01-25T12:13:09.075Z,16.17
2023-01-25T12:14:09.682Z,16.17
2023-01-25T12:15:10.287Z,16.23
2023-01-25T12:16:10.959Z,16.26
2023-01-25T12:17:11.545Z,16.15
2023-01-25T12:18:13.001Z,16.21
2023-01-25T12:19:13.599Z,16.20
2023-01-25T12:20:14.199Z,16.23
2023-01-25T12:21:20.062Z,16.23
2023-01-25T12:22:16.461Z,16.23
2023-01-25T12:23:17.052Z,16.24
2023-01-25T12:24:17.661Z,16.13
2023-01-25T12:25:18.422Z,16.23
2023-01-25T12:26:19.028Z,16.23
2023-01-25T12:27:19.627Z,16.17
2023-01-25T12:28:20.280Z,16.17
2023-01-25T12:29:20.872Z,16.17
2023-01-25T12:31:23.558Z,16.12
2023-01-25T12:32:25.034Z,16.23
2023-01-25T12:33:25.633Z,16.16
2023-01-25T12:34:26.386Z,16.17
2023-01-25T12:35:26.996Z,16.21
2023-01-25T12:36:27.642Z,16.13
2023-01-25T12:37:28.443Z,16.08
2023-01-25T12:38:29.044Z,16.21
2023-01-25T12:39:29.701Z,16.16
2023-01-25T12:40:30.294Z,16.13
2023-01-25T12:41:30.903Z,16.09
2023-01-25T12:42:31.488Z,16.20
2023-01-25T12:43:32.093Z,16.02
2023-01-25T12:44:32.764Z,16.10
2023-01-25T12:45:33.360Z,16.04
2023-01-25T12:46:33.986Z,16.05
2023-01-25T12:47:34.583Z,16.09
2023-01-25T12:48:35.249Z,16.08
2023-01-25T12:49:35.854Z,16.12
2023-01-25T12:50:36.443Z,16.08
2023-01-25T12:51:37.089Z,16.12
2023-01-25T12:52:37.671Z,16.05
2023-01-25T12:53:38.344Z,16.04
2023-01-25T12:54:38.984Z,16.04
2023-01-25T12:55:39.587Z,16.05
2023-01-25T12:56:40.256Z,16.10
2023-01-25T12:57:40.862Z,16.05
2023-01-25T12:58:41.455Z,16.04
2023-01-25T12:59:42.056Z,16.09
2023-01-25T13:00:42.684Z,16.01
2023-01-25T13:01:43.383Z,16.12
2023-01-25T13:02:43.981Z,16.01